Time;durP1;ratioP1;P1;durP2;ratioP2;P2;SDS_P1;SDS_P2;PMS_P1;PMS_P2;Temp;Humidity;BMP_temperature;BMP_pressure;BME280_temperature;BME280_humidity;BME280_pressure;Samples;Min_cycle;Max_cycle;Signal;HPM_P1;HPM_P2
2022/07/21 00:00:15;;;;;;;16.63;11.88;;;;;;;21.46;82.71;100123.47;5053619;28;20091;-85
2022/07/21 00:02:40;;;;;;;21.63;11.13;;;;;;;21.48;82.45;100129.50;5054226;28;20029;-85
2022/07/21 00:05:06;;;;;;;14.18;10.35;;;;;;;21.49;81.11;100124.78;5054061;28;20438;-84
2022/07/21 00:07:31;;;;;;;16.88;11.70;;;;;;;21.52;81.99;100113.03;5053435;28;20032;-85
2022/07/21 00:09:56;;;;;;;17.30;11.27;;;;;;;21.56;80.79;100117.56;5052247;28;20070;-85
2022/07/21 00:12:22;;;;;;;14.93;10.40;;;;;;;21.49;81.10;100117.28;5050119;28;20278;-79
2022/07/21 00:14:47;;;;;;;18.65;11.60;;;;;;;21.51;81.15;100120.53;5047482;28;20269;-79
2022/07/21 00:17:12;;;;;;;18.50;12.20;;;;;;;21.49;81.01;100114.50;5048125;28;20052;-84
2022/07/21 00:19:38;;;;;;;16.88;9.35;;;;;;;21.46;80.91;100106.81;5049024;28;20044;-84
2022/07/21 00:22:03;;;;;;;20.90;11.57;;;;;;;21.52;80.84;100101.94;5054127;28;20040;-90
2022/07/21 00:24:28;;;;;;;15.00;10.75;;;;;;;21.34;81.16;100102.78;5046248;28;20254;-89
2022/07/21 00:26:53;;;;;;;16.03;10.90;;;;;;;21.45;80.56;100089.41;5050954;28;20040;-78
2022/07/21 00:29:19;;;;;;;26.27;11.23;;;;;;;21.53;80.27;100084.13;5046049;28;20270;-78
2022/07/21 00:31:44;;;;;;;17.83;11.47;;;;;;;21.40;80.54;100072.13;5049932;28;20296;-87
2022/07/21 00:34:09;;;;;;;13.87;10.20;;;;;;;21.26;81.41;100070.34;5057606;28;20312;-89
2022/07/21 00:36:34;;;;;;;15.27;11.10;;;;;;;21.27;81.35;100065.63;5054168;28;20995;-84
2022/07/21 00:39:00;;;;;;;13.77;10.40;;;;;;;21.27;81.85;100066.47;5052829;28;20304;-85
2022/07/21 00:41:25;;;;;;;15.52;9.90;;;;;;;21.33;81.42;100073.44;5052622;28;20327;-85
2022/07/21 00:43:51;;;;;;;15.70;9.73;;;;;;;21.30;81.43;100070.50;5052736;28;20143;-83
2022/07/21 00:46:20;;;;;;;15.30;9.60;;;;;;;21.31;81.42;100078.50;5051891;28;20282;-88
2022/07/21 00:48:45;;;;;;;15.20;9.75;;;;;;;21.23;81.54;100084.88;5052718;28;20027;-88
2022/07/21 00:51:10;;;;;;;15.37;8.77;;;;;;;21.23;81.33;100087.66;5051974;28;20116;-78
2022/07/21 00:53:35;;;;;;;12.47;8.97;;;;;;;21.17;81.01;100088.97;5046305;28;20357;-78
2022/07/21 00:56:01;;;;;;;13.85;9.98;;;;;;;21.22;81.61;100097.09;5046349;28;20262;-79
2022/07/21 00:58:27;;;;;;;18.55;11.00;;;;;;;21.10;81.31;100087.53;5046362;28;20108;-79
2022/07/21 01:00:52;;;;;;;15.52;9.45;;;;;;;21.06;81.77;100105.94;5045843;28;20609;-78
2022/07/21 01:03:17;;;;;;;12.98;8.77;;;;;;;21.03;82.38;100103.81;5047368;28;20029;-79
2022/07/21 01:05:43;;;;;;;13.30;8.45;;;;;;;20.97;81.42;100105.16;5046518;28;20055;-79
2022/07/21 01:08:08;;;;;;;13.18;10.07;;;;;;;21.03;81.63;100111.34;5059474;28;20040;-89
2022/07/21 01:10:33;;;;;;;15.32;8.57;;;;;;;20.93;82.62;100110.47;5053516;28;20116;-88
2022/07/21 01:13:00;;;;;;;13.10;8.82;;;;;;;20.76;82.19;100103.00;5050008;28;20032;-81
2022/07/21 01:15:26;;;;;;;19.35;8.63;;;;;;;20.84;82.02;100098.59;5049232;28;20033;-81
2022/07/21 01:17:52;;;;;;;12.05;8.02;;;;;;;20.82;81.48;100107.25;5051192;28;20048;-84
2022/07/21 01:20:20;;;;;;;14.10;8.02;;;;;;;20.81;81.48;100111.13;5051400;28;20111;-84
2022/07/21 01:22:49;;;;;;;21.58;9.38;;;;;;;20.88;81.22;100105.94;5052097;28;20116;-85
2022/07/21 01:25:15;;;;;;;11.90;8.50;;;;;;;20.75;81.70;100107.72;5052248;28;20028;-83
2022/07/21 01:27:41;;;;;;;13.68;8.63;;;;;;;20.87;80.58;100093.22;5050783;28;20487;-80
2022/07/21 01:30:08;;;;;;;15.95;9.45;;;;;;;20.72;81.83;100102.03;5050281;28;20032;-81
2022/07/21 01:32:35;;;;;;;13.98;8.43;;;;;;;20.65;82.43;100119.94;5051930;28;20028;-82
2022/07/21 01:35:02;;;;;;;15.35;9.02;;;;;;;20.72;82.81;100118.66;5050869;28;20725;-82
2022/07/21 01:37:29;;;;;;;12.23;8.73;;;;;;;20.72;82.62;100122.25;5051866;28;20709;-82
2022/07/21 01:42:38;;;;;;;11.23;8.15;;;;;;;20.62;81.96;100126.16;5048426;28;20571;-77
2022/07/21 01:45:04;;;;;;;16.13;9.60;;;;;;;20.60;82.45;100128.44;5046272;28;20032;-76
2022/07/21 01:47:30;;;;;;;21.77;9.50;;;;;;;20.60;81.89;100128.44;5048611;28;20301;-81
2022/07/21 01:49:56;;;;;;;13.95;8.70;;;;;;;20.63;81.86;100122.22;5048975;28;20089;-80
2022/07/21 01:52:21;;;;;;;11.88;8.07;;;;;;;20.58;82.33;100133.47;5051318;28;20033;-82
2022/07/21 01:54:46;;;;;;;15.77;9.50;;;;;;;20.44;81.63;100124.50;5050733;28;20063;-80
2022/07/21 01:57:12;;;;;;;12.93;8.70;;;;;;;20.42;82.29;100122.84;5051688;28;20045;-84
2022/07/21 01:59:37;;;;;;;12.68;7.95;;;;;;;20.37;82.50;100120.25;5051674;28;20082;-84
2022/07/21 02:02:03;;;;;;;12.32;6.50;;;;;;;20.44;81.44;100118.94;5051633;28;20478;-82
2022/07/21 02:04:28;;;;;;;11.30;7.25;;;;;;;20.38;81.67;100113.56;5051309;28;20033;-82
2022/07/21 02:06:54;;;;;;;13.75;9.02;;;;;;;20.30;81.77;100111.59;5051342;28;20043;-81
2022/07/21 02:09:19;;;;;;;14.75;8.88;;;;;;;20.25;82.03;100112.56;5050736;28;20033;-81
2022/07/21 02:11:44;;;;;;;9.80;6.38;;;;;;;20.14;82.23;100106.50;5073467;22;20056;-85
2022/07/21 02:14:10;;;;;;;10.40;6.20;;;;;;;20.17;81.78;100116.94;5095315;28;20410;-85
2022/07/21 02:16:35;;;;;;;9.43;6.43;;;;;;;20.18;80.77;100129.63;5094505;28;20331;-86
2022/07/21 02:19:00;;;;;;;11.20;7.60;;;;;;;20.14;81.75;100123.13;5094598;28;20310;-86
2022/07/21 02:21:26;;;;;;;13.27;7.63;;;;;;;20.19;81.49;100136.00;5095064;28;20249;-86
2022/07/21 02:23:51;;;;;;;17.35;6.65;;;;;;;20.10;81.71;100133.19;5095130;28;20508;-86
2022/07/21 02:26:17;;;;;;;11.43;7.07;;;;;;;20.03;82.58;100127.28;5094298;28;20514;-86
2022/07/21 02:28:42;;;;;;;11.93;6.50;;;;;;;20.06;82.91;100133.00;5094688;28;20020;-86
2022/07/21 02:31:07;;;;;;;11.63;7.75;;;;;;;20.08;81.91;100116.09;5094655;28;20097;-86
2022/07/21 02:33:33;;;;;;;13.27;8.40;;;;;;;20.13;81.86;100118.72;5097556;28;20375;-85
2022/07/21 02:35:58;;;;;;;12.25;7.88;;;;;;;20.04;82.06;100118.66;5099242;28;20244;-86
2022/07/21 02:38:24;;;;;;;15.48;8.18;;;;;;;20.04;82.16;100118.66;5098572;28;20513;-86
2022/07/21 02:40:49;;;;;;;12.43;7.78;;;;;;;20.14;82.32;100125.88;5098892;28;20097;-86
2022/07/21 02:43:14;;;;;;;11.70;6.77;;;;;;;20.08;82.29;100124.41;5098799;28;20051;-86
2022/07/21 02:45:41;;;;;;;14.65;7.25;;;;;;;20.06;81.52;100127.47;5098235;28;20264;-86
2022/07/21 02:48:09;;;;;;;12.93;7.57;;;;;;;20.03;81.83;100125.34;5096151;28;20480;-76
2022/07/21 02:50:37;;;;;;;19.02;6.13;;;;;;;19.98;82.33;100125.47;5098639;28;20081;-85
2022/07/21 02:53:05;;;;;;;10.77;6.03;;;;;;;19.89;82.59;100122.66;5098120;28;20023;-85
2022/07/21 02:55:30;;;;;;;12.60;6.40;;;;;;;19.93;82.68;100120.91;5098945;28;20424;-85
2022/07/21 02:58:16;;;;;;;11.63;6.85;;;;;;;19.92;82.87;100116.50;5098441;28;20024;-85
2022/07/21 03:00:49;;;;;;;11.77;6.28;;;;;;;19.98;82.04;100114.41;5097902;28;20035;-86
2022/07/21 03:03:15;;;;;;;9.00;5.38;;;;;;;19.93;82.42;100106.25;5098327;28;20027;-86
2022/07/21 03:05:40;;;;;;;14.55;7.00;;;;;;;19.92;82.11;100110.97;5097608;28;20020;-86
2022/07/21 03:08:07;;;;;;;9.18;5.32;;;;;;;19.91;81.65;100103.81;5098533;28;20035;-85
2022/07/21 03:10:33;;;;;;;9.30;5.72;;;;;;;19.78;82.61;100096.44;5097874;28;20020;-86
2022/07/21 03:12:58;;;;;;;10.30;7.07;;;;;;;19.82;82.01;100111.25;5097851;28;20066;-86
2022/07/21 03:15:25;;;;;;;11.65;6.55;;;;;;;19.74;82.79;100104.56;5097611;28;20028;-86
2022/07/21 03:17:51;;;;;;;12.98;7.30;;;;;;;19.70;83.34;100098.84;5097542;28;20395;-85
2022/07/21 03:20:16;;;;;;;11.25;6.00;;;;;;;19.62;83.28;100096.88;5095964;28;20034;-85
2022/07/21 03:22:41;;;;;;;9.55;5.70;;;;;;;19.63;82.90;100092.16;5097481;28;20072;-85
2022/07/21 03:25:07;;;;;;;10.50;6.17;;;;;;;19.56;83.05;100104.50;5097669;28;20028;-85
2022/07/21 03:27:35;;;;;;;11.20;7.18;;;;;;;19.56;83.62;100092.63;5094773;28;20241;-85
2022/07/21 03:30:06;;;;;;;9.68;6.00;;;;;;;19.59;83.22;100100.25;5097265;28;20020;-85
2022/07/21 03:32:32;;;;;;;11.23;6.82;;;;;;;19.64;83.59;100094.59;5097238;28;20027;-85
2022/07/21 03:34:57;;;;;;;11.30;7.28;;;;;;;19.65;83.48;100095.44;5098059;28;20032;-85
2022/07/21 03:37:22;;;;;;;11.70;8.18;;;;;;;19.66;83.22;100092.34;5097263;28;20514;-85
2022/07/21 03:39:48;;;;;;;12.77;7.70;;;;;;;19.65;83.72;100079.63;5098032;28;20047;-85
2022/07/21 03:42:13;;;;;;;16.02;7.25;;;;;;;19.64;83.97;100072.47;5098184;28;20024;-85
2022/07/21 03:44:38;;;;;;;12.50;5.47;;;;;;;19.69;83.12;100069.56;5096200;28;20024;-85
2022/07/21 03:47:03;;;;;;;13.13;7.07;;;;;;;19.64;83.77;100060.59;5096728;28;20020;-85
2022/07/21 03:49:29;;;;;;;14.07;6.60;;;;;;;19.54;83.91;100062.53;5089398;28;20319;-85
2022/07/21 03:51:54;;;;;;;11.93;6.23;;;;;;;19.57;83.63;100061.06;5077222;28;20028;-85
2022/07/21 03:54:19;;;;;;;10.83;7.00;;;;;;;19.47;84.24;100056.63;5077143;28;20567;-85
2022/07/21 03:56:44;;;;;;;10.20;5.25;;;;;;;19.54;83.46;100053.41;5077212;28;20265;-85
2022/07/21 03:59:10;;;;;;;10.50;6.07;;;;;;;19.60;83.51;100054.91;5077088;28;20093;-85
2022/07/21 04:01:35;;;;;;;14.97;6.10;;;;;;;19.57;83.71;100048.03;5076154;28;20020;-85
2022/07/21 04:04:00;;;;;;;9.77;5.23;;;;;;;19.75;82.57;100044.53;5076135;28;20254;-84
2022/07/21 04:06:25;;;;;;;11.43;6.33;;;;;;;19.69;83.00;100030.84;5076406;28;20277;-85
2022/07/21 04:08:51;;;;;;;8.87;5.70;;;;;;;19.67;83.14;100016.53;5074259;28;20268;-80
2022/07/21 04:11:16;;;;;;;10.45;6.13;;;;;;;19.78;83.13;100021.75;5076091;28;20395;-84
2022/07/21 04:13:41;;;;;;;12.10;6.70;;;;;;;19.62;83.20;100024.16;5061328;28;20028;-84
2022/07/21 04:16:07;;;;;;;11.43;6.88;;;;;;;19.50;84.43;100033.06;5075988;28;20508;-84
2022/07/21 04:18:32;;;;;;;10.83;6.53;;;;;;;19.65;83.63;100040.91;5076082;28;20031;-84
2022/07/21 04:20:57;;;;;;;10.35;6.75;;;;;;;19.67;83.53;100041.41;5076152;28;20292;-84
2022/07/21 04:23:23;;;;;;;11.52;6.63;;;;;;;19.67;83.98;100046.16;5076670;28;20081;-85
2022/07/21 04:25:48;;;;;;;9.27;6.15;;;;;;;19.70;83.42;100043.56;5076682;28;20027;-84
2022/07/21 04:28:13;;;;;;;9.70;6.65;;;;;;;19.69;83.49;100035.56;5076446;28;20028;-84
2022/07/21 04:30:39;;;;;;;10.55;6.88;;;;;;;19.77;83.49;100025.69;5076581;28;20024;-84
2022/07/21 04:33:06;;;;;;;10.55;6.22;;;;;;;19.81;82.85;100040.50;5075788;28;20107;-84
2022/07/21 04:35:31;;;;;;;10.95;6.68;;;;;;;19.82;82.96;100037.41;5076728;28;20453;-84
2022/07/21 04:37:57;;;;;;;11.50;7.30;;;;;;;19.88;82.80;100048.31;5075626;28;20041;-83
2022/07/21 04:40:22;;;;;;;11.97;7.03;;;;;;;19.83;82.88;100038.22;5076222;28;20096;-84
2022/07/21 04:42:47;;;;;;;14.33;9.73;;;;;;;19.92;82.99;100038.22;5075088;28;20250;-84
2022/07/21 04:45:14;;;;;;;10.68;7.65;;;;;;;19.94;83.37;100042.31;5075494;28;20324;-84
2022/07/21 04:47:50;;;;;;;16.95;9.90;;;;;;;19.91;83.66;100037.41;5075730;28;20024;-84
2022/07/21 04:50:17;;;;;;;14.93;10.15;;;;;;;19.83;84.10;100041.78;5076135;28;20039;-84
2022/07/21 04:52:43;;;;;;;15.55;10.30;;;;;;;19.88;83.61;100040.81;5075395;28;20445;-84
2022/07/21 04:55:10;;;;;;;18.40;11.02;;;;;;;19.94;83.32;100050.63;5075120;28;20025;-84
2022/07/21 04:57:40;;;;;;;15.15;10.15;;;;;;;19.95;83.32;100055.00;5075694;28;20132;-84
2022/07/21 05:00:07;;;;;;;17.83;11.45;;;;;;;20.06;82.78;100054.69;5075452;28;20446;-84
2022/07/21 05:02:33;;;;;;;23.88;12.00;;;;;;;20.12;82.49;100060.91;5075207;28;20032;-84
2022/07/21 05:04:58;;;;;;;18.88;10.75;;;;;;;20.15;82.58;100055.56;5075114;28;20024;-84
2022/07/21 05:07:23;;;;;;;14.55;9.93;;;;;;;20.18;82.47;100057.69;5075534;28;20032;-84
2022/07/21 05:09:48;;;;;;;21.27;12.13;;;;;;;20.03;82.57;100058.13;5075119;28;20032;-84
2022/07/21 05:12:14;;;;;;;23.50;11.63;;;;;;;19.89;83.34;100064.56;5083240;28;20304;-84
2022/07/21 05:14:39;;;;;;;18.92;11.45;;;;;;;19.92;83.40;100061.19;5095530;28;20253;-84
2022/07/21 05:17:04;;;;;;;19.23;11.85;;;;;;;19.94;83.23;100067.22;5095451;28;20036;-84
2022/07/21 05:19:30;;;;;;;16.45;12.40;;;;;;;20.05;82.92;100059.44;5095935;28;20028;-84
2022/07/21 05:21:55;;;;;;;15.53;10.63;;;;;;;20.17;82.01;100066.31;5095625;28;20059;-84
2022/07/21 05:24:20;;;;;;;22.30;13.83;;;;;;;20.08;82.39;100063.53;5095810;28;20717;-84
2022/07/21 05:26:45;;;;;;;16.52;11.32;;;;;;;20.09;82.14;100064.34;5095561;28;20276;-84
2022/07/21 05:29:11;;;;;;;17.53;13.03;;;;;;;20.03;82.41;100053.41;5095150;28;20035;-84
2022/07/21 05:31:36;;;;;;;18.37;11.77;;;;;;;20.11;82.82;100065.66;5094974;28;20248;-84
2022/07/21 05:34:01;;;;;;;17.83;12.70;;;;;;;20.09;82.25;100065.16;5095582;28;20339;-84
2022/07/21 05:36:27;;;;;;;19.48;12.75;;;;;;;20.16;82.58;100068.25;5094963;28;20782;-84
2022/07/21 05:38:52;;;;;;;19.70;12.93;;;;;;;20.18;82.43;100068.75;5094909;28;20020;-85
2022/07/21 05:41:17;;;;;;;16.80;11.70;;;;;;;20.16;82.40;100065.50;5094996;28;20031;-84
2022/07/21 05:43:42;;;;;;;18.95;13.25;;;;;;;20.20;82.57;100078.69;5094810;28;20589;-85
2022/07/21 05:46:08;;;;;;;17.77;12.50;;;;;;;20.28;82.04;100075.09;5093206;28;20035;-84
2022/07/21 05:48:33;;;;;;;18.58;11.57;;;;;;;20.22;82.14;100073.66;5082839;28;20583;-84
2022/07/21 05:50:58;;;;;;;18.67;13.00;;;;;;;20.24;82.35;100071.38;5075056;28;20077;-84
2022/07/21 05:53:24;;;;;;;15.97;11.47;;;;;;;20.30;81.69;100065.34;5074444;28;20598;-84
2022/07/21 05:55:49;;;;;;;18.33;12.20;;;;;;;20.28;81.69;100073.16;5076978;28;20256;-84
2022/07/21 05:58:15;;;;;;;19.60;13.00;;;;;;;20.48;81.59;100070.09;5095339;28;20020;-84
2022/07/21 06:00:41;;;;;;;20.77;12.43;;;;;;;20.63;81.08;100080.69;5092898;28;20016;-84
2022/07/21 06:03:06;;;;;;;18.65;12.48;;;;;;;20.64;80.64;100082.28;5095238;28;20361;-84
2022/07/21 06:05:31;;;;;;;17.73;11.85;;;;;;;20.72;79.59;100080.69;5094610;28;20054;-84
2022/07/21 06:07:57;;;;;;;16.75;11.80;;;;;;;20.72;81.02;100077.09;5078974;28;20377;-84
2022/07/21 06:10:22;;;;;;;14.37;11.23;;;;;;;20.80;80.11;100081.00;5078259;28;20031;-83
2022/07/21 06:12:47;;;;;;;16.30;10.98;;;;;;;20.88;79.06;100069.91;5078734;28;20306;-84
2022/07/21 06:15:13;;;;;;;16.20;12.10;;;;;;;20.73;79.62;100067.63;5079020;28;20024;-84
2022/07/21 06:17:41;;;;;;;19.23;12.55;;;;;;;20.82;79.91;100074.00;5096080;28;20268;-84
2022/07/21 06:20:08;;;;;;;16.45;11.60;;;;;;;20.79;79.01;100074.63;5099210;28;20107;-84
2022/07/21 06:22:34;;;;;;;17.38;13.35;;;;;;;20.75;79.44;100081.97;5098667;28;20102;-84
2022/07/21 06:24:59;;;;;;;15.60;11.32;;;;;;;20.65;79.11;100075.63;5099329;28;20110;-84
2022/07/21 06:27:24;;;;;;;19.60;11.73;;;;;;;20.73;79.22;100075.94;5098792;28;20365;-84
2022/07/21 06:29:49;;;;;;;25.43;13.07;;;;;;;20.69;79.95;100089.63;5098509;28;20297;-84
2022/07/21 06:32:15;;;;;;;17.70;12.00;;;;;;;20.94;79.53;100091.91;5098632;28;20267;-84
2022/07/21 06:34:40;;;;;;;19.25;11.80;;;;;;;21.15;79.43;100085.72;5086557;28;20257;-81
2022/07/21 06:37:05;;;;;;;14.00;10.67;;;;;;;21.16;78.24;100092.88;5079327;28;20283;-81
2022/07/21 06:39:31;;;;;;;17.60;12.23;;;;;;;21.01;78.23;100094.22;5080247;28;20756;-81
2022/07/21 06:41:56;;;;;;;16.45;11.15;;;;;;;21.03;78.00;100095.50;5081228;28;20038;-81
2022/07/21 06:44:24;;;;;;;15.30;10.93;;;;;;;20.98;78.66;100098.44;5070711;28;20028;-81
2022/07/21 06:46:50;;;;;;;19.08;12.43;;;;;;;20.78;79.14;100092.41;5089565;28;20371;-81
2022/07/21 06:49:15;;;;;;;15.43;11.68;;;;;;;20.88;78.83;100097.63;5089139;28;20429;-81
2022/07/21 06:51:40;;;;;;;18.47;11.53;;;;;;;20.91;78.37;100098.13;5088914;28;20044;-82
2022/07/21 06:54:05;;;;;;;20.60;11.80;;;;;;;20.98;78.38;100098.44;5092768;28;20276;-85
2022/07/21 06:56:31;;;;;;;16.67;11.70;;;;;;;21.03;77.72;100105.78;5094921;28;20260;-82
2022/07/21 06:58:56;;;;;;;15.95;11.63;;;;;;;21.10;78.19;100104.16;5097528;28;20260;-80
2022/07/21 07:01:21;;;;;;;16.23;12.50;;;;;;;20.99;78.99;100091.78;5097034;28;20056;-80
2022/07/21 07:03:47;;;;;;;16.97;11.63;;;;;;;21.03;78.77;100103.81;5098183;28;20059;-81
2022/07/21 07:06:12;;;;;;;14.98;11.35;;;;;;;21.10;77.64;100111.63;5097814;28;20265;-81
2022/07/21 07:08:39;;;;;;;17.80;11.90;;;;;;;21.07;77.55;100104.78;5097135;28;20031;-81
2022/07/21 07:11:05;;;;;;;17.33;10.93;;;;;;;21.26;77.83;100097.25;5097377;28;20249;-81
2022/07/21 07:13:30;;;;;;;15.80;10.50;;;;;;;21.21;77.01;100092.72;5094875;28;20070;-82
2022/07/21 07:15:56;;;;;;;16.98;10.55;;;;;;;21.30;76.34;100089.91;5097382;28;20027;-82
2022/07/21 07:18:23;;;;;;;17.87;11.70;;;;;;;21.09;76.40;100085.88;5096946;28;20027;-82
2022/07/21 07:20:50;;;;;;;15.05;11.52;;;;;;;21.14;77.34;100082.13;5097759;28;20245;-82
2022/07/21 07:23:15;;;;;;;18.70;11.38;;;;;;;21.15;76.77;100086.53;5097347;28;20401;-82
2022/07/21 07:25:40;;;;;;;16.90;10.82;;;;;;;21.25;76.58;100077.06;5097006;28;20100;-81
2022/07/21 07:28:08;;;;;;;21.88;12.13;;;;;;;21.27;76.97;100090.59;5097181;28;20032;-82
2022/07/21 07:30:34;;;;;;;19.70;13.38;;;;;;;21.28;77.00;100083.88;5097012;28;20026;-81
2022/07/21 07:32:59;;;;;;;18.40;11.73;;;;;;;21.38;76.11;100094.63;5096920;28;20020;-82
2022/07/21 07:35:25;;;;;;;15.15;11.60;;;;;;;21.33;76.61;100095.63;5093302;28;20016;-80
2022/07/21 07:37:50;;;;;;;18.70;13.32;;;;;;;21.25;77.72;100106.72;5097137;28;20451;-81
2022/07/21 07:40:19;;;;;;;15.32;12.40;;;;;;;21.32;76.69;100099.53;5097254;28;20032;-81
2022/07/21 07:42:44;;;;;;;14.55;10.73;;;;;;;21.38;76.98;100100.16;5095549;28;20020;-82
2022/07/21 07:45:11;;;;;;;15.45;11.55;;;;;;;21.46;76.85;100101.28;5096851;28;20028;-83
2022/07/21 07:47:36;;;;;;;14.75;12.27;;;;;;;21.57;76.04;100107.28;5095006;28;20081;-84
2022/07/21 07:50:03;;;;;;;15.18;10.85;;;;;;;21.60;75.81;100094.72;5095101;28;20461;-84
2022/07/21 07:52:29;;;;;;;13.75;9.68;;;;;;;21.56;75.68;100100.91;5087998;28;20032;-79
2022/07/21 07:54:54;;;;;;;16.20;10.02;;;;;;;21.40;74.58;100097.09;5089035;28;20020;-81
2022/07/21 07:57:19;;;;;;;13.35;9.32;;;;;;;21.42;73.84;100094.75;5089136;28;20417;-82
2022/07/21 07:59:45;;;;;;;12.02;8.05;;;;;;;21.45;73.10;100089.41;5087762;28;20502;-79
2022/07/21 08:02:10;;;;;;;12.83;8.43;;;;;;;21.68;73.07;100091.09;5087710;28;20064;-82
2022/07/21 08:04:35;;;;;;;13.20;9.33;;;;;;;21.72;71.91;100092.06;5087638;28;20317;-81
2022/07/21 08:07:02;;;;;;;13.18;6.70;;;;;;;21.81;72.21;100090.06;5088122;28;20289;-82
2022/07/21 08:09:27;;;;;;;11.52;8.32;;;;;;;22.01;71.97;100092.44;5086889;28;20031;-82
2022/07/21 08:11:53;;;;;;;11.25;8.88;;;;;;;22.11;71.50;100091.25;5087498;28;20377;-81
2022/07/21 08:14:18;;;;;;;16.38;9.43;;;;;;;22.16;71.05;100093.81;5087782;28;20360;-82
2022/07/21 08:16:45;;;;;;;13.45;8.27;;;;;;;22.54;71.20;100096.84;5085876;28;20028;-82
2022/07/21 08:19:10;;;;;;;14.65;9.00;;;;;;;22.65;69.91;100097.25;5084164;28;20025;-80
2022/07/21 08:21:35;;;;;;;11.23;8.32;;;;;;;22.69;67.29;100104.59;5086736;28;20385;-82
2022/07/21 08:24:01;;;;;;;11.13;8.05;;;;;;;22.31;67.96;100106.31;5088057;28;20020;-80
2022/07/21 08:26:27;;;;;;;10.80;8.15;;;;;;;22.51;68.14;100101.94;5087742;28;20032;-83
2022/07/21 08:28:53;;;;;;;12.65;8.52;;;;;;;23.01;67.27;100098.59;5087998;28;20020;-82
2022/07/21 08:31:19;;;;;;;11.20;7.85;;;;;;;22.97;66.58;100095.69;5085684;28;20105;-82
2022/07/21 08:33:44;;;;;;;11.30;8.18;;;;;;;22.97;65.36;100104.03;5087094;28;20062;-84
2022/07/21 08:36:10;;;;;;;10.65;7.90;;;;;;;23.09;64.82;100106.03;5087758;28;20024;-82
2022/07/21 08:38:35;;;;;;;11.23;7.20;;;;;;;23.12;65.17;100098.97;5087540;28;20028;-82
2022/07/21 08:41:01;;;;;;;13.43;7.43;;;;;;;22.96;65.41;100094.03;5084911;28;20039;-81
2022/07/21 08:43:26;;;;;;;11.80;7.75;;;;;;;23.15;64.39;100089.94;5087403;28;20253;-81
2022/07/21 08:45:53;;;;;;;12.18;6.68;;;;;;;23.33;64.53;100093.34;5082601;28;20034;-82
2022/07/21 08:48:25;;;;;;;11.25;7.28;;;;;;;23.34;64.29;100099.72;5066526;28;20035;-82
2022/07/21 08:50:50;;;;;;;16.17;6.65;;;;;;;23.44;64.10;100095.69;5069380;28;20446;-83
2022/07/21 08:53:17;;;;;;;10.52;7.28;;;;;;;23.44;63.24;100098.47;5067014;28;20063;-81
2022/07/21 08:55:42;;;;;;;9.18;6.30;;;;;;;23.46;63.38;100100.94;5067107;28;20074;-79
2022/07/21 08:58:09;;;;;;;8.97;7.00;;;;;;;23.48;63.36;100099.44;5067225;28;20020;-80
2022/07/21 09:00:36;;;;;;;9.27;6.25;;;;;;;23.39;63.77;100105.06;5078886;28;20284;-82
2022/07/21 09:03:20;;;;;;;10.85;7.07;;;;;;;22.95;63.58;100105.50;5086997;28;20063;-80
2022/07/21 09:06:15;;;;;;;10.95;6.47;;;;;;;22.91;64.44;100094.25;5067111;28;20029;-82
2022/07/21 09:08:50;;;;;;;16.00;7.20;;;;;;;22.65;64.63;100103.66;5067092;28;20214;-78
2022/07/21 09:11:20;;;;;;;8.85;6.40;;;;;;;22.55;65.07;100098.47;5084615;28;20035;-83
2022/07/21 09:13:51;;;;;;;10.43;6.80;;;;;;;22.60;66.11;100096.28;5087146;28;20040;-81
2022/07/21 09:16:35;;;;;;;11.07;6.57;;;;;;;22.69;66.34;100099.03;5085894;28;20122;-82
2022/07/21 09:19:02;;;;;;;8.45;6.60;;;;;;;22.93;65.59;100097.50;5084326;28;20031;-83
2022/07/21 09:21:28;;;;;;;11.07;8.20;;;;;;;22.86;65.46;100097.25;5086107;28;20028;-84
2022/07/21 09:24:14;;;;;;;12.98;7.65;;;;;;;22.96;65.16;100096.03;5087193;28;20035;-83
2022/07/21 09:27:17;;;;;;;13.82;8.35;;;;;;;23.21;64.44;100090.53;5087016;28;20024;-82
2022/07/21 09:29:45;;;;;;;9.88;6.90;;;;;;;23.34;63.85;100102.50;5085376;28;20024;-84
2022/07/21 09:32:13;;;;;;;9.45;7.30;;;;;;;23.48;63.14;100098.63;5086692;28;20061;-81
2022/07/21 09:34:39;;;;;;;13.93;8.85;;;;;;;23.35;62.84;100092.19;5086528;28;20036;-82
2022/07/21 09:37:06;;;;;;;9.70;7.50;;;;;;;23.35;62.75;100089.41;5086508;28;20050;-82
2022/07/21 09:39:46;;;;;;;10.98;8.38;;;;;;;23.38;62.40;100086.75;5085410;28;20048;-83
2022/07/21 09:42:17;;;;;;;10.90;7.63;;;;;;;23.46;63.02;100095.38;5086752;28;20032;-82
2022/07/21 09:44:47;;;;;;;13.90;7.30;;;;;;;23.67;62.28;100090.53;5086715;28;20498;-80
2022/07/21 09:47:14;;;;;;;9.75;6.90;;;;;;;23.63;62.94;100097.97;5070531;28;20058;-83
2022/07/21 09:49:41;;;;;;;13.57;8.82;;;;;;;23.51;63.41;100098.72;5070448;28;20536;-81
2022/07/21 09:52:30;;;;;;;15.30;8.23;;;;;;;23.32;63.48;100102.03;5086205;28;20046;-83
2022/07/21 09:55:00;;;;;;;14.95;8.60;;;;;;;23.37;64.31;100099.03;5086840;28;20028;-81
2022/07/21 09:57:26;;;;;;;11.68;8.07;;;;;;;23.35;63.19;100089.41;5086326;28;20028;-82
2022/07/21 09:59:53;;;;;;;11.00;7.47;;;;;;;23.51;63.90;100097.94;5086069;28;20027;-83
2022/07/21 10:02:22;;;;;;;15.48;8.70;;;;;;;23.58;62.96;100100.13;5086635;28;20456;-82
2022/07/21 10:04:55;;;;;;;13.98;9.90;;;;;;;23.53;62.87;100107.53;5086150;28;20088;-83
2022/07/21 10:07:22;;;;;;;11.88;8.55;;;;;;;23.47;62.19;100099.78;5086541;28;20020;-81
2022/07/21 10:09:48;;;;;;;17.88;9.15;;;;;;;23.52;62.50;100099.56;5085001;28;20067;-82
2022/07/21 10:12:15;;;;;;;10.70;7.70;;;;;;;23.65;61.54;100104.00;5086190;28;20044;-84
2022/07/21 10:14:41;;;;;;;15.52;7.97;;;;;;;23.50;61.70;100102.69;5086774;28;20028;-80
2022/07/21 10:17:07;;;;;;;9.65;6.72;;;;;;;23.60;61.68;100101.41;5084799;28;20035;-82
2022/07/21 10:19:41;;;;;;;9.82;7.10;;;;;;;23.56;60.44;100106.06;5082044;28;20276;-83
2022/07/21 10:22:23;;;;;;;10.73;7.68;;;;;;;23.35;60.65;100103.31;5086682;28;20032;-83
2022/07/21 10:24:49;;;;;;;11.60;7.38;;;;;;;23.54;60.53;100114.75;5086929;28;20036;-83
2022/07/21 10:27:15;;;;;;;10.35;6.95;;;;;;;23.68;60.10;100108.03;5086691;28;20249;-83
2022/07/21 10:30:01;;;;;;;18.80;8.23;;;;;;;23.65;60.37;100104.00;5084754;28;21134;-82
2022/07/21 10:32:27;;;;;;;15.77;7.50;;;;;;;23.67;59.42;100104.47;5084297;28;20074;-81
2022/07/21 10:34:55;;;;;;;12.02;6.50;;;;;;;23.59;59.50;100099.00;5088599;28;20028;-84
2022/07/21 10:37:38;;;;;;;13.80;7.22;;;;;;;23.77;60.19;100105.16;5091437;28;20549;-81
2022/07/21 10:40:19;;;;;;;9.27;6.57;;;;;;;23.74;58.78;100100.25;5084597;28;20036;-79
2022/07/21 10:42:45;;;;;;;12.10;6.88;;;;;;;23.72;58.51;100091.44;5084409;28;20032;-82
2022/07/21 10:45:33;;;;;;;13.23;7.82;;;;;;;23.80;58.61;100107.22;5074797;28;20035;-82
2022/07/21 10:47:59;;;;;;;9.85;7.53;;;;;;;23.57;58.42;100113.25;5066407;28;20115;-82
2022/07/21 10:50:32;;;;;;;32.60;8.88;;;;;;;23.41;58.77;100122.22;5076386;28;20051;-83
2022/07/21 10:52:59;;;;;;;10.93;7.88;;;;;;;23.13;59.40;100114.50;5079169;28;20150;-79
2022/07/21 10:55:27;;;;;;;10.18;6.80;;;;;;;23.29;59.05;100113.88;5070088;28;20020;-83
2022/07/21 10:58:12;;;;;;;12.98;7.15;;;;;;;23.42;59.06;100112.72;5069766;28;20021;-83
2022/07/21 11:00:38;;;;;;;15.27;7.82;;;;;;;23.53;58.39;100115.88;5082251;28;20031;-82
2022/07/21 11:03:23;;;;;;;13.13;6.50;;;;;;;23.37;59.77;100120.47;5089583;28;20036;-83
2022/07/21 11:06:14;;;;;;;9.73;6.75;;;;;;;23.19;58.87;100115.91;5069593;28;20028;-83
2022/07/21 11:08:41;;;;;;;9.63;6.35;;;;;;;23.02;60.23;100128.03;5069736;28;20458;-78
2022/07/21 11:11:10;;;;;;;12.27;7.43;;;;;;;22.91;60.55;100126.78;5086830;28;20046;-81
2022/07/21 11:13:58;;;;;;;9.82;6.18;;;;;;;22.77;62.42;100121.53;5089510;28;20040;-79
2022/07/21 11:16:43;;;;;;;11.05;6.97;;;;;;;22.62;61.92;100129.28;5087330;28;20138;-82